sensor_id;sensor_type;location;lat;lon;timestamp;pressure;altitude;pressure_sealevel;temperature;humidity
73896;BME280;73986;50.770;6.080;2024-01-30T00:01:53;100568.47;;;10.21;57.40
73896;BME280;73986;50.770;6.080;2024-01-30T00:12:00;100569.34;;;10.21;57.35
73896;BME280;73986;50.770;6.080;2024-01-30T00:22:03;100566.59;;;10.23;57.35
73896;BME280;73986;50.770;6.080;2024-01-30T00:32:05;100556.91;;;10.24;57.49
73896;BME280;73986;50.770;6.080;2024-01-30T00:42:09;100548.78;;;10.28;57.27
73896;BME280;73986;50.770;6.080;2024-01-30T00:52:10;100534.47;;;10.32;57.50
73896;BME280;73986;50.770;6.080;2024-01-30T01:02:13;100533.47;;;10.35;57.71
73896;BME280;73986;50.770;6.080;2024-01-30T01:12:17;100528.19;;;10.35;57.73
73896;BME280;73986;50.770;6.080;2024-01-30T01:22:20;100528.19;;;10.35;57.79
73896;BME280;73986;50.770;6.080;2024-01-30T01:32:23;100527.44;;;10.33;57.90
73896;BME280;73986;50.770;6.080;2024-01-30T01:42:26;100533.91;;;10.27;58.27
73896;BME280;73986;50.770;6.080;2024-01-30T01:52:28;100544.34;;;10.29;58.10
73896;BME280;73986;50.770;6.080;2024-01-30T02:02:35;100542.84;;;10.25;58.29
73896;BME280;73986;50.770;6.080;2024-01-30T02:12:37;100533.72;;;10.30;57.96
73896;BME280;73986;50.770;6.080;2024-01-30T02:22:40;100524.63;;;10.36;58.10
73896;BME280;73986;50.770;6.080;2024-01-30T02:32:42;100507.63;;;10.42;58.15
73896;BME280;73986;50.770;6.080;2024-01-30T02:42:45;100510.75;;;10.49;58.17
73896;BME280;73986;50.770;6.080;2024-01-30T02:52:47;100495.13;;;10.45;58.22
73896;BME280;73986;50.770;6.080;2024-01-30T03:02:51;100484.94;;;10.39;58.49
73896;BME280;73986;50.770;6.080;2024-01-30T03:12:53;100484.38;;;10.34;58.59
73896;BME280;73986;50.770;6.080;2024-01-30T03:22:56;100501.03;;;10.34;58.55
73896;BME280;73986;50.770;6.080;2024-01-30T03:32:57;100493.31;;;10.31;58.55
73896;BME280;73986;50.770;6.080;2024-01-30T03:43:00;100491.38;;;10.35;58.67
73896;BME280;73986;50.770;6.080;2024-01-30T03:53:03;100489.56;;;10.36;58.71
73896;BME280;73986;50.770;6.080;2024-01-30T04:03:06;100482.50;;;10.36;58.59
73896;BME280;73986;50.770;6.080;2024-01-30T04:13:08;100478.94;;;10.37;59.06
73896;BME280;73986;50.770;6.080;2024-01-30T04:23:11;100469.47;;;10.34;59.41
73896;BME280;73986;50.770;6.080;2024-01-30T04:33:12;100466.72;;;10.36;59.39
73896;BME280;73986;50.770;6.080;2024-01-30T04:43:15;100466.63;;;10.38;59.40
73896;BME280;73986;50.770;6.080;2024-01-30T04:53:17;100466.63;;;10.38;60.02
73896;BME280;73986;50.770;6.080;2024-01-30T05:03:20;100472.47;;;10.43;60.29
73896;BME280;73986;50.770;6.080;2024-01-30T05:13:23;100465.16;;;10.48;60.12
73896;BME280;73986;50.770;6.080;2024-01-30T05:23:26;100451.91;;;10.50;60.04
73896;BME280;73986;50.770;6.080;2024-01-30T05:33:27;100440.34;;;10.52;60.29
73896;BME280;73986;50.770;6.080;2024-01-30T05:43:31;100440.06;;;10.57;60.62
73896;BME280;73986;50.770;6.080;2024-01-30T05:53:32;100427.34;;;10.64;60.76
73896;BME280;73986;50.770;6.080;2024-01-30T06:03:35;100432.41;;;10.67;61.02
73896;BME280;73986;50.770;6.080;2024-01-30T06:13:37;100448.97;;;10.69;61.08
73896;BME280;73986;50.770;6.080;2024-01-30T06:23:40;100453.28;;;10.70;61.11
73896;BME280;73986;50.770;6.080;2024-01-30T06:33:41;100449.06;;;10.67;61.22
73896;BME280;73986;50.770;6.080;2024-01-30T06:43:44;100436.09;;;10.64;61.42
73896;BME280;73986;50.770;6.080;2024-01-30T06:53:46;100437.03;;;10.63;61.13
73896;BME280;73986;50.770;6.080;2024-01-30T07:03:49;100447.91;;;10.72;60.90
73896;BME280;73986;50.770;6.080;2024-01-30T07:13:51;100450.56;;;10.72;60.56
73896;BME280;73986;50.770;6.080;2024-01-30T07:23:54;100455.56;;;10.76;60.62
73896;BME280;73986;50.770;6.080;2024-01-30T07:33:56;100464.56;;;10.87;60.20
73896;BME280;73986;50.770;6.080;2024-01-30T07:44:06;100471.84;;;10.96;60.13
73896;BME280;73986;50.770;6.080;2024-01-30T07:54:12;100468.72;;;11.04;60.12
73896;BME280;73986;50.770;6.080;2024-01-30T08:04:15;100495.34;;;11.14;60.01
73896;BME280;73986;50.770;6.080;2024-01-30T08:14:18;100497.66;;;11.18;59.92
73896;BME280;73986;50.770;6.080;2024-01-30T08:24:21;100508.75;;;11.24;59.80
73896;BME280;73986;50.770;6.080;2024-01-30T08:34:29;100513.78;;;11.41;59.61
73896;BME280;73986;50.770;6.080;2024-01-30T08:44:32;100529.75;;;11.53;59.38
73896;BME280;73986;50.770;6.080;2024-01-30T08:54:33;100538.34;;;11.70;59.31
73896;BME280;73986;50.770;6.080;2024-01-30T09:04:36;100566.22;;;11.87;58.71
73896;BME280;73986;50.770;6.080;2024-01-30T09:14:39;100568.25;;;12.50;58.03
73896;BME280;73986;50.770;6.080;2024-01-30T12:28:31;100631.59;;;11.96;60.83
73896;BME280;73986;50.770;6.080;2024-01-30T12:38:32;100616.91;;;12.05;60.38
73896;BME280;73986;50.770;6.080;2024-01-30T12:48:35;100629.44;;;12.16;60.61
73896;BME280;73986;50.770;6.080;2024-01-30T12:58:38;100628.13;;;11.81;61.43
73896;BME280;73986;50.770;6.080;2024-01-30T13:08:49;100650.47;;;11.75;61.51
73896;BME280;73986;50.770;6.080;2024-01-30T13:18:53;100664.78;;;11.71;61.58
73896;BME280;73986;50.770;6.080;2024-01-30T13:51:01;100660.69;;;11.52;62.29
73896;BME280;73986;50.770;6.080;2024-01-30T14:01:03;100673.56;;;11.72;61.79
73896;BME280;73986;50.770;6.080;2024-01-30T14:11:07;100666.03;;;11.93;61.56
73896;BME280;73986;50.770;6.080;2024-01-30T14:21:08;100667.78;;;12.07;61.58
73896;BME280;73986;50.770;6.080;2024-01-30T14:31:12;100681.38;;;11.73;62.26
73896;BME280;73986;50.770;6.080;2024-01-30T14:41:17;100699.38;;;11.52;62.35
73896;BME280;73986;50.770;6.080;2024-01-30T14:51:20;100720.25;;;10.82;63.17
73896;BME280;73986;50.770;6.080;2024-01-30T15:01:22;100745.91;;;10.31;63.64
73896;BME280;73986;50.770;6.080;2024-01-30T15:11:25;100746.72;;;10.01;63.53
73896;BME280;73986;50.770;6.080;2024-01-30T15:21:27;100762.63;;;9.82;63.23
73896;BME280;73986;50.770;6.080;2024-01-30T15:31:30;100772.41;;;9.96;63.10
73896;BME280;73986;50.770;6.080;2024-01-30T16:47:56;100882.69;;;9.12;61.29
73896;BME280;73986;50.770;6.080;2024-01-30T16:58:43;100907.47;;;9.06;60.78
73896;BME280;73986;50.770;6.080;2024-01-30T17:31:28;100943.22;;;9.09;60.33
73896;BME280;73986;50.770;6.080;2024-01-30T17:41:30;100948.00;;;9.00;59.96
73896;BME280;73986;50.770;6.080;2024-01-30T17:52:22;100951.06;;;8.91;60.04
73896;BME280;73986;50.770;6.080;2024-01-30T18:02:24;100961.09;;;8.83;59.82
73896;BME280;73986;50.770;6.080;2024-01-30T18:45:18;101019.31;;;8.51;59.56
73896;BME280;73986;50.770;6.080;2024-01-30T18:55:29;101029.00;;;8.50;59.76
73896;BME280;73986;50.770;6.080;2024-01-30T19:05:50;101031.72;;;8.47;59.77
73896;BME280;73986;50.770;6.080;2024-01-30T19:16:05;101031.66;;;8.49;59.88
73896;BME280;73986;50.770;6.080;2024-01-30T19:26:09;101028.53;;;8.40;59.74
73896;BME280;73986;50.770;6.080;2024-01-30T19:36:11;101045.56;;;8.30;60.25
73896;BME280;73986;50.770;6.080;2024-01-30T19:46:14;101055.38;;;8.26;60.11
73896;BME280;73986;50.770;6.080;2024-01-30T19:56:15;101067.03;;;8.19;60.10
73896;BME280;73986;50.770;6.080;2024-01-30T20:06:19;101073.84;;;8.02;60.60
73896;BME280;73986;50.770;6.080;2024-01-30T20:16:21;101081.66;;;8.04;60.21
73896;BME280;73986;50.770;6.080;2024-01-30T20:26:26;101099.34;;;7.99;60.50
73896;BME280;73986;50.770;6.080;2024-01-30T20:36:28;101092.84;;;7.87;60.72
73896;BME280;73986;50.770;6.080;2024-01-30T20:46:31;101107.88;;;7.82;60.73
73896;BME280;73986;50.770;6.080;2024-01-30T20:56:32;101115.94;;;7.77;60.83
73896;BME280;73986;50.770;6.080;2024-01-30T21:06:36;101119.78;;;7.68;61.33
73896;BME280;73986;50.770;6.080;2024-01-30T21:16:37;101134.97;;;7.58;61.39
73896;BME280;73986;50.770;6.080;2024-01-30T21:26:40;101135.78;;;7.60;61.69
73896;BME280;73986;50.770;6.080;2024-01-30T21:36:42;101140.47;;;7.52;61.73
73896;BME280;73986;50.770;6.080;2024-01-30T21:46:45;101149.06;;;7.56;61.91
73896;BME280;73986;50.770;6.080;2024-01-30T21:56:47;101142.19;;;7.53;62.41
73896;BME280;73986;50.770;6.080;2024-01-30T22:06:50;101161.78;;;7.42;62.43
73896;BME280;73986;50.770;6.080;2024-01-30T22:16:52;101168.09;;;7.37;63.10
73896;BME280;73986;50.770;6.080;2024-01-30T22:26:55;101173.78;;;7.24;63.12
73896;BME280;73986;50.770;6.080;2024-01-30T22:36:57;101185.47;;;7.39;62.75
73896;BME280;73986;50.770;6.080;2024-01-30T22:47:00;101195.44;;;7.29;63.23
73896;BME280;73986;50.770;6.080;2024-01-30T22:57:01;101194.78;;;7.23;63.29
73896;BME280;73986;50.770;6.080;2024-01-30T23:07:05;101205.16;;;7.26;63.46
73896;BME280;73986;50.770;6.080;2024-01-30T23:17:06;101208.28;;;7.12;63.99
73896;BME280;73986;50.770;6.080;2024-01-30T23:27:10;101216.09;;;7.13;63.92
73896;BME280;73986;50.770;6.080;2024-01-30T23:37:12;101218.09;;;7.30;63.84
73896;BME280;73986;50.770;6.080;2024-01-30T23:47:15;101220.28;;;7.17;64.11
73896;BME280;73986;50.770;6.080;2024-01-30T23:57:17;101211.22;;;7.02;64.13
